sensor_id;sensor_type;location;lat;lon;timestamp;P1;durP1;ratioP1;P2;durP2;ratioP2
56239;SDS011;42154;51.992;5.896;2022-12-24T00:01:11;30.92;;;6.22;;
56239;SDS011;42154;51.992;5.896;2022-12-24T00:03:37;28.20;;;5.20;;
56239;SDS011;42154;51.992;5.896;2022-12-24T00:06:04;32.28;;;5.30;;
56239;SDS011;42154;51.992;5.896;2022-12-24T00:08:30;32.13;;;5.93;;
56239;SDS011;42154;51.992;5.896;2022-12-24T00:10:56;29.75;;;6.47;;
56239;SDS011;42154;51.992;5.896;2022-12-24T00:13:22;37.03;;;6.57;;
56239;SDS011;42154;51.992;5.896;2022-12-24T00:15:48;27.13;;;5.13;;
56239;SDS011;42154;51.992;5.896;2022-12-24T00:18:14;26.55;;;5.80;;
56239;SDS011;42154;51.992;5.896;2022-12-24T00:20:40;32.65;;;5.88;;
56239;SDS011;42154;51.992;5.896;2022-12-24T00:23:06;36.67;;;7.55;;
56239;SDS011;42154;51.992;5.896;2022-12-24T00:25:32;28.75;;;5.88;;
56239;SDS011;42154;51.992;5.896;2022-12-24T00:27:58;38.70;;;7.78;;
56239;SDS011;42154;51.992;5.896;2022-12-24T00:30:23;32.63;;;6.13;;
56239;SDS011;42154;51.992;5.896;2022-12-24T00:32:49;27.58;;;5.50;;
56239;SDS011;42154;51.992;5.896;2022-12-24T00:35:15;29.33;;;6.47;;
56239;SDS011;42154;51.992;5.896;2022-12-24T00:37:40;36.55;;;7.22;;
56239;SDS011;42154;51.992;5.896;2022-12-24T00:40:06;34.25;;;5.93;;
56239;SDS011;42154;51.992;5.896;2022-12-24T00:42:32;28.05;;;6.10;;
56239;SDS011;42154;51.992;5.896;2022-12-24T00:44:58;34.35;;;7.03;;
56239;SDS011;42154;51.992;5.896;2022-12-24T00:47:24;30.73;;;5.75;;
56239;SDS011;42154;51.992;5.896;2022-12-24T00:49:49;28.35;;;6.43;;
56239;SDS011;42154;51.992;5.896;2022-12-24T00:52:15;23.70;;;5.53;;
56239;SDS011;42154;51.992;5.896;2022-12-24T00:54:41;33.88;;;7.20;;
56239;SDS011;42154;51.992;5.896;2022-12-24T00:57:07;29.67;;;5.40;;
56239;SDS011;42154;51.992;5.896;2022-12-24T00:59:32;33.95;;;5.97;;
56239;SDS011;42154;51.992;5.896;2022-12-24T01:01:58;32.42;;;5.68;;
56239;SDS011;42154;51.992;5.896;2022-12-24T01:04:24;42.15;;;7.63;;
56239;SDS011;42154;51.992;5.896;2022-12-24T01:07:08;32.80;;;6.47;;
56239;SDS011;42154;51.992;5.896;2022-12-24T01:09:34;30.65;;;5.38;;
56239;SDS011;42154;51.992;5.896;2022-12-24T01:11:59;30.50;;;5.93;;
56239;SDS011;42154;51.992;5.896;2022-12-24T01:14:25;31.70;;;6.47;;
56239;SDS011;42154;51.992;5.896;2022-12-24T01:16:51;37.03;;;6.57;;
56239;SDS011;42154;51.992;5.896;2022-12-24T01:19:16;31.48;;;6.32;;
56239;SDS011;42154;51.992;5.896;2022-12-24T01:21:42;28.80;;;5.47;;
56239;SDS011;42154;51.992;5.896;2022-12-24T01:24:12;22.23;;;4.75;;
56239;SDS011;42154;51.992;5.896;2022-12-24T01:26:39;32.35;;;6.75;;
56239;SDS011;42154;51.992;5.896;2022-12-24T01:29:05;29.85;;;6.13;;
56239;SDS011;42154;51.992;5.896;2022-12-24T01:31:31;30.92;;;5.68;;
56239;SDS011;42154;51.992;5.896;2022-12-24T01:33:58;32.67;;;5.72;;
56239;SDS011;42154;51.992;5.896;2022-12-24T01:36:23;34.90;;;7.85;;
56239;SDS011;42154;51.992;5.896;2022-12-24T01:38:49;26.25;;;5.13;;
56239;SDS011;42154;51.992;5.896;2022-12-24T01:41:16;38.05;;;7.13;;
56239;SDS011;42154;51.992;5.896;2022-12-24T01:49:36;26.95;;;6.07;;
56239;SDS011;42154;51.992;5.896;2022-12-24T01:52:08;36.72;;;7.15;;
56239;SDS011;42154;51.992;5.896;2022-12-24T01:54:47;32.13;;;6.35;;
56239;SDS011;42154;51.992;5.896;2022-12-24T01:57:20;34.20;;;7.10;;
56239;SDS011;42154;51.992;5.896;2022-12-24T01:59:50;37.03;;;7.05;;
56239;SDS011;42154;51.992;5.896;2022-12-24T02:02:21;26.60;;;7.00;;
56239;SDS011;42154;51.992;5.896;2022-12-24T02:05:11;32.20;;;5.88;;
56239;SDS011;42154;51.992;5.896;2022-12-24T02:07:38;29.17;;;6.88;;
56239;SDS011;42154;51.992;5.896;2022-12-24T02:10:09;32.70;;;6.90;;
56239;SDS011;42154;51.992;5.896;2022-12-24T02:12:36;27.10;;;5.25;;
56239;SDS011;42154;51.992;5.896;2022-12-24T02:15:03;28.17;;;5.80;;
56239;SDS011;42154;51.992;5.896;2022-12-24T02:20:35;33.75;;;6.88;;
56239;SDS011;42154;51.992;5.896;2022-12-24T02:32:10;36.40;;;7.40;;
56239;SDS011;42154;51.992;5.896;2022-12-24T02:34:44;34.28;;;6.50;;
56239;SDS011;42154;51.992;5.896;2022-12-24T02:37:19;38.63;;;6.07;;
56239;SDS011;42154;51.992;5.896;2022-12-24T02:39:51;40.78;;;7.70;;
56239;SDS011;42154;51.992;5.896;2022-12-24T02:42:19;31.17;;;6.10;;
56239;SDS011;42154;51.992;5.896;2022-12-24T02:44:51;23.73;;;4.80;;
56239;SDS011;42154;51.992;5.896;2022-12-24T02:47:21;26.10;;;5.97;;
56239;SDS011;42154;51.992;5.896;2022-12-24T02:49:50;27.13;;;5.53;;
56239;SDS011;42154;51.992;5.896;2022-12-24T02:55:01;33.22;;;6.45;;
56239;SDS011;42154;51.992;5.896;2022-12-24T03:00:58;32.45;;;6.95;;
56239;SDS011;42154;51.992;5.896;2022-12-24T03:09:01;27.75;;;6.50;;
56239;SDS011;42154;51.992;5.896;2022-12-24T03:11:47;26.20;;;4.82;;
56239;SDS011;42154;51.992;5.896;2022-12-24T03:14:19;29.65;;;5.70;;
56239;SDS011;42154;51.992;5.896;2022-12-24T03:16:47;20.42;;;4.40;;
56239;SDS011;42154;51.992;5.896;2022-12-24T03:19:13;25.70;;;5.78;;
56239;SDS011;42154;51.992;5.896;2022-12-24T03:21:40;30.55;;;6.43;;
56239;SDS011;42154;51.992;5.896;2022-12-24T03:24:07;29.02;;;5.88;;
56239;SDS011;42154;51.992;5.896;2022-12-24T03:26:34;22.65;;;4.78;;
56239;SDS011;42154;51.992;5.896;2022-12-24T03:29:03;26.90;;;6.00;;
56239;SDS011;42154;51.992;5.896;2022-12-24T03:31:42;25.33;;;5.93;;
56239;SDS011;42154;51.992;5.896;2022-12-24T03:34:09;23.05;;;4.78;;
56239;SDS011;42154;51.992;5.896;2022-12-24T03:36:35;28.30;;;6.43;;
56239;SDS011;42154;51.992;5.896;2022-12-24T03:39:02;22.70;;;4.65;;
56239;SDS011;42154;51.992;5.896;2022-12-24T03:41:28;33.80;;;7.30;;
56239;SDS011;42154;51.992;5.896;2022-12-24T03:43:54;27.38;;;6.22;;
56239;SDS011;42154;51.992;5.896;2022-12-24T03:46:20;30.25;;;5.75;;
56239;SDS011;42154;51.992;5.896;2022-12-24T03:48:46;22.85;;;5.18;;
56239;SDS011;42154;51.992;5.896;2022-12-24T03:51:19;27.45;;;5.88;;
56239;SDS011;42154;51.992;5.896;2022-12-24T03:53:46;25.60;;;4.45;;
56239;SDS011;42154;51.992;5.896;2022-12-24T03:56:12;30.75;;;6.22;;
56239;SDS011;42154;51.992;5.896;2022-12-24T03:58:38;28.55;;;7.18;;
56239;SDS011;42154;51.992;5.896;2022-12-24T04:01:04;32.35;;;6.93;;
56239;SDS011;42154;51.992;5.896;2022-12-24T04:03:30;37.50;;;6.80;;
56239;SDS011;42154;51.992;5.896;2022-12-24T04:06:00;25.85;;;6.32;;
56239;SDS011;42154;51.992;5.896;2022-12-24T04:08:27;25.85;;;5.95;;
56239;SDS011;42154;51.992;5.896;2022-12-24T04:10:53;25.55;;;5.20;;
56239;SDS011;42154;51.992;5.896;2022-12-24T04:13:19;30.63;;;6.72;;
56239;SDS011;42154;51.992;5.896;2022-12-24T04:15:44;33.47;;;7.05;;
56239;SDS011;42154;51.992;5.896;2022-12-24T04:18:10;29.13;;;5.80;;
56239;SDS011;42154;51.992;5.896;2022-12-24T04:20:36;28.50;;;5.68;;
56239;SDS011;42154;51.992;5.896;2022-12-24T04:23:01;33.70;;;5.47;;
56239;SDS011;42154;51.992;5.896;2022-12-24T04:25:27;25.33;;;6.10;;
56239;SDS011;42154;51.992;5.896;2022-12-24T04:27:53;28.30;;;6.22;;
56239;SDS011;42154;51.992;5.896;2022-12-24T04:30:18;31.40;;;6.80;;
56239;SDS011;42154;51.992;5.896;2022-12-24T04:32:44;27.38;;;6.38;;
56239;SDS011;42154;51.992;5.896;2022-12-24T04:35:10;30.55;;;7.25;;
56239;SDS011;42154;51.992;5.896;2022-12-24T04:37:36;30.50;;;6.88;;
56239;SDS011;42154;51.992;5.896;2022-12-24T04:40:01;30.73;;;7.05;;
56239;SDS011;42154;51.992;5.896;2022-12-24T04:42:27;29.40;;;6.10;;
56239;SDS011;42154;51.992;5.896;2022-12-24T04:44:53;30.17;;;7.78;;
56239;SDS011;42154;51.992;5.896;2022-12-24T04:47:19;26.42;;;6.30;;
56239;SDS011;42154;51.992;5.896;2022-12-24T04:49:44;36.28;;;8.15;;
56239;SDS011;42154;51.992;5.896;2022-12-24T04:52:10;31.73;;;7.15;;
56239;SDS011;42154;51.992;5.896;2022-12-24T04:54:36;38.10;;;9.07;;
56239;SDS011;42154;51.992;5.896;2022-12-24T04:57:01;28.27;;;7.25;;
56239;SDS011;42154;51.992;5.896;2022-12-24T04:59:27;29.60;;;7.10;;
56239;SDS011;42154;51.992;5.896;2022-12-24T05:01:53;31.17;;;6.97;;
56239;SDS011;42154;51.992;5.896;2022-12-24T05:04:19;35.00;;;7.38;;
56239;SDS011;42154;51.992;5.896;2022-12-24T05:06:44;30.85;;;6.38;;
56239;SDS011;42154;51.992;5.896;2022-12-24T05:09:10;31.15;;;7.55;;
56239;SDS011;42154;51.992;5.896;2022-12-24T05:11:36;31.90;;;7.05;;
56239;SDS011;42154;51.992;5.896;2022-12-24T05:14:01;31.08;;;7.70;;
56239;SDS011;42154;51.992;5.896;2022-12-24T05:16:27;32.63;;;7.60;;
56239;SDS011;42154;51.992;5.896;2022-12-24T05:18:53;37.67;;;8.32;;
56239;SDS011;42154;51.992;5.896;2022-12-24T05:21:21;39.40;;;8.57;;
56239;SDS011;42154;51.992;5.896;2022-12-24T05:23:48;38.78;;;7.72;;
56239;SDS011;42154;51.992;5.896;2022-12-24T05:26:34;28.55;;;6.20;;
56239;SDS011;42154;51.992;5.896;2022-12-24T05:29:04;23.60;;;5.32;;
56239;SDS011;42154;51.992;5.896;2022-12-24T05:31:31;30.33;;;5.85;;
56239;SDS011;42154;51.992;5.896;2022-12-24T05:33:57;32.25;;;7.05;;
56239;SDS011;42154;51.992;5.896;2022-12-24T05:36:24;26.17;;;7.00;;
56239;SDS011;42154;51.992;5.896;2022-12-24T05:38:50;37.60;;;8.15;;
56239;SDS011;42154;51.992;5.896;2022-12-24T05:41:15;30.02;;;7.47;;
56239;SDS011;42154;51.992;5.896;2022-12-24T05:43:42;34.95;;;6.68;;
56239;SDS011;42154;51.992;5.896;2022-12-24T05:46:08;28.17;;;6.82;;
56239;SDS011;42154;51.992;5.896;2022-12-24T05:48:35;32.03;;;7.35;;
56239;SDS011;42154;51.992;5.896;2022-12-24T05:51:08;36.80;;;8.32;;
56239;SDS011;42154;51.992;5.896;2022-12-24T05:53:35;39.33;;;7.88;;
56239;SDS011;42154;51.992;5.896;2022-12-24T05:56:06;34.35;;;7.55;;
56239;SDS011;42154;51.992;5.896;2022-12-24T05:58:33;28.73;;;7.43;;
56239;SDS011;42154;51.992;5.896;2022-12-24T06:01:00;31.95;;;8.25;;
56239;SDS011;42154;51.992;5.896;2022-12-24T06:03:28;35.38;;;8.63;;
56239;SDS011;42154;51.992;5.896;2022-12-24T06:06:04;43.60;;;9.65;;
56239;SDS011;42154;51.992;5.896;2022-12-24T06:08:38;31.80;;;7.28;;
56239;SDS011;42154;51.992;5.896;2022-12-24T06:11:06;44.33;;;8.77;;
56239;SDS011;42154;51.992;5.896;2022-12-24T06:13:34;33.28;;;7.72;;
56239;SDS011;42154;51.992;5.896;2022-12-24T06:16:01;31.90;;;7.07;;
56239;SDS011;42154;51.992;5.896;2022-12-24T06:18:28;50.78;;;9.80;;
56239;SDS011;42154;51.992;5.896;2022-12-24T06:20:55;33.70;;;8.02;;
56239;SDS011;42154;51.992;5.896;2022-12-24T06:23:22;30.95;;;6.88;;
56239;SDS011;42154;51.992;5.896;2022-12-24T06:25:48;30.55;;;7.10;;
56239;SDS011;42154;51.992;5.896;2022-12-24T06:28:15;37.55;;;7.68;;
56239;SDS011;42154;51.992;5.896;2022-12-24T06:30:44;38.63;;;7.57;;
56239;SDS011;42154;51.992;5.896;2022-12-24T06:33:11;26.83;;;5.85;;
56239;SDS011;42154;51.992;5.896;2022-12-24T06:35:37;29.30;;;7.13;;
56239;SDS011;42154;51.992;5.896;2022-12-24T06:38:02;39.85;;;7.80;;
56239;SDS011;42154;51.992;5.896;2022-12-24T06:40:28;37.92;;;7.35;;
56239;SDS011;42154;51.992;5.896;2022-12-24T06:42:54;39.65;;;8.57;;
56239;SDS011;42154;51.992;5.896;2022-12-24T06:45:20;39.08;;;8.27;;
56239;SDS011;42154;51.992;5.896;2022-12-24T06:47:45;31.67;;;7.70;;
56239;SDS011;42154;51.992;5.896;2022-12-24T06:50:11;40.15;;;8.85;;
56239;SDS011;42154;51.992;5.896;2022-12-24T06:52:37;42.15;;;9.30;;
56239;SDS011;42154;51.992;5.896;2022-12-24T06:55:03;41.50;;;9.27;;
56239;SDS011;42154;51.992;5.896;2022-12-24T06:57:30;42.22;;;9.02;;
56239;SDS011;42154;51.992;5.896;2022-12-24T06:59:58;41.92;;;9.20;;
56239;SDS011;42154;51.992;5.896;2022-12-24T07:02:25;36.70;;;9.27;;
56239;SDS011;42154;51.992;5.896;2022-12-24T07:04:50;34.40;;;8.25;;
56239;SDS011;42154;51.992;5.896;2022-12-24T07:07:16;32.20;;;8.18;;
56239;SDS011;42154;51.992;5.896;2022-12-24T07:09:42;44.30;;;8.93;;
56239;SDS011;42154;51.992;5.896;2022-12-24T07:12:08;45.10;;;9.35;;
56239;SDS011;42154;51.992;5.896;2022-12-24T07:14:33;36.70;;;8.45;;
56239;SDS011;42154;51.992;5.896;2022-12-24T07:16:59;48.05;;;11.30;;
56239;SDS011;42154;51.992;5.896;2022-12-24T07:19:25;43.67;;;9.05;;
56239;SDS011;42154;51.992;5.896;2022-12-24T07:21:51;38.83;;;8.98;;
56239;SDS011;42154;51.992;5.896;2022-12-24T07:24:16;37.00;;;8.32;;
56239;SDS011;42154;51.992;5.896;2022-12-24T07:26:42;38.20;;;9.50;;
56239;SDS011;42154;51.992;5.896;2022-12-24T07:29:08;36.60;;;9.70;;
56239;SDS011;42154;51.992;5.896;2022-12-24T07:31:34;39.00;;;10.10;;
56239;SDS011;42154;51.992;5.896;2022-12-24T07:33:59;43.00;;;9.25;;
56239;SDS011;42154;51.992;5.896;2022-12-24T07:36:25;37.67;;;9.07;;
56239;SDS011;42154;51.992;5.896;2022-12-24T07:38:52;33.17;;;8.27;;
56239;SDS011;42154;51.992;5.896;2022-12-24T07:41:18;37.45;;;9.60;;
56239;SDS011;42154;51.992;5.896;2022-12-24T07:43:44;35.50;;;8.68;;
56239;SDS011;42154;51.992;5.896;2022-12-24T07:46:10;35.10;;;7.80;;
56239;SDS011;42154;51.992;5.896;2022-12-24T07:48:36;32.47;;;6.93;;
56239;SDS011;42154;51.992;5.896;2022-12-24T07:51:02;34.58;;;9.00;;
56239;SDS011;42154;51.992;5.896;2022-12-24T07:53:28;31.73;;;6.78;;
56239;SDS011;42154;51.992;5.896;2022-12-24T07:55:54;24.65;;;7.30;;
56239;SDS011;42154;51.992;5.896;2022-12-24T07:58:21;33.45;;;8.07;;
56239;SDS011;42154;51.992;5.896;2022-12-24T08:00:47;41.40;;;8.20;;
56239;SDS011;42154;51.992;5.896;2022-12-24T08:03:16;36.22;;;8.07;;
56239;SDS011;42154;51.992;5.896;2022-12-24T08:05:43;26.30;;;6.63;;
56239;SDS011;42154;51.992;5.896;2022-12-24T08:08:09;27.85;;;6.43;;
56239;SDS011;42154;51.992;5.896;2022-12-24T08:10:37;39.38;;;7.75;;
56239;SDS011;42154;51.992;5.896;2022-12-24T08:13:04;23.13;;;6.90;;
56239;SDS011;42154;51.992;5.896;2022-12-24T08:15:29;32.65;;;6.78;;
56239;SDS011;42154;51.992;5.896;2022-12-24T08:17:55;30.38;;;7.00;;
56239;SDS011;42154;51.992;5.896;2022-12-24T08:20:21;28.38;;;7.45;;
56239;SDS011;42154;51.992;5.896;2022-12-24T08:22:47;27.88;;;6.10;;
56239;SDS011;42154;51.992;5.896;2022-12-24T08:25:12;29.10;;;6.80;;
56239;SDS011;42154;51.992;5.896;2022-12-24T08:27:38;32.30;;;7.28;;
56239;SDS011;42154;51.992;5.896;2022-12-24T08:30:04;33.47;;;6.28;;
56239;SDS011;42154;51.992;5.896;2022-12-24T08:32:30;24.75;;;6.45;;
56239;SDS011;42154;51.992;5.896;2022-12-24T08:34:57;34.67;;;7.88;;
56239;SDS011;42154;51.992;5.896;2022-12-24T08:37:23;38.97;;;6.82;;
56239;SDS011;42154;51.992;5.896;2022-12-24T08:39:48;38.58;;;8.20;;
56239;SDS011;42154;51.992;5.896;2022-12-24T08:42:14;28.80;;;7.30;;
56239;SDS011;42154;51.992;5.896;2022-12-24T08:44:40;30.55;;;7.97;;
56239;SDS011;42154;51.992;5.896;2022-12-24T08:47:06;32.88;;;6.70;;
56239;SDS011;42154;51.992;5.896;2022-12-24T08:49:31;39.03;;;8.73;;
56239;SDS011;42154;51.992;5.896;2022-12-24T08:51:57;37.63;;;8.43;;
56239;SDS011;42154;51.992;5.896;2022-12-24T08:54:23;30.98;;;8.45;;
56239;SDS011;42154;51.992;5.896;2022-12-24T08:56:50;35.25;;;7.55;;
56239;SDS011;42154;51.992;5.896;2022-12-24T08:59:16;26.60;;;6.93;;
56239;SDS011;42154;51.992;5.896;2022-12-24T09:01:41;31.70;;;8.75;;
56239;SDS011;42154;51.992;5.896;2022-12-24T09:04:07;30.20;;;9.10;;
56239;SDS011;42154;51.992;5.896;2022-12-24T09:06:34;39.10;;;9.65;;
56239;SDS011;42154;51.992;5.896;2022-12-24T09:09:01;43.85;;;9.77;;
56239;SDS011;42154;51.992;5.896;2022-12-24T09:11:27;34.13;;;10.38;;
56239;SDS011;42154;51.992;5.896;2022-12-24T09:13:53;50.25;;;11.30;;
56239;SDS011;42154;51.992;5.896;2022-12-24T09:16:19;31.33;;;7.68;;
56239;SDS011;42154;51.992;5.896;2022-12-24T09:18:45;33.58;;;8.30;;
56239;SDS011;42154;51.992;5.896;2022-12-24T09:21:12;30.27;;;7.93;;
56239;SDS011;42154;51.992;5.896;2022-12-24T09:23:39;33.78;;;8.93;;
56239;SDS011;42154;51.992;5.896;2022-12-24T09:26:12;24.88;;;7.53;;
56239;SDS011;42154;51.992;5.896;2022-12-24T09:28:40;30.90;;;8.70;;
56239;SDS011;42154;51.992;5.896;2022-12-24T09:31:06;37.33;;;8.65;;
56239;SDS011;42154;51.992;5.896;2022-12-24T09:33:34;32.00;;;9.45;;
56239;SDS011;42154;51.992;5.896;2022-12-24T09:36:01;29.98;;;8.27;;
56239;SDS011;42154;51.992;5.896;2022-12-24T09:38:27;31.98;;;8.25;;
56239;SDS011;42154;51.992;5.896;2022-12-24T09:40:55;29.17;;;8.25;;
56239;SDS011;42154;51.992;5.896;2022-12-24T09:43:22;38.30;;;10.10;;
56239;SDS011;42154;51.992;5.896;2022-12-24T09:48:16;32.38;;;8.65;;
56239;SDS011;42154;51.992;5.896;2022-12-24T09:53:22;36.30;;;8.13;;
56239;SDS011;42154;51.992;5.896;2022-12-24T09:55:52;29.55;;;7.55;;
56239;SDS011;42154;51.992;5.896;2022-12-24T09:58:35;30.35;;;8.43;;
56239;SDS011;42154;51.992;5.896;2022-12-24T10:01:05;29.30;;;7.63;;
56239;SDS011;42154;51.992;5.896;2022-12-24T10:03:34;31.23;;;7.43;;
56239;SDS011;42154;51.992;5.896;2022-12-24T10:06:05;32.60;;;8.32;;
56239;SDS011;42154;51.992;5.896;2022-12-24T10:11:13;38.75;;;8.30;;
56239;SDS011;42154;51.992;5.896;2022-12-24T10:14:06;27.27;;;6.68;;
56239;SDS011;42154;51.992;5.896;2022-12-24T10:17:05;33.58;;;8.93;;
56239;SDS011;42154;51.992;5.896;2022-12-24T10:25:45;33.47;;;8.15;;
56239;SDS011;42154;51.992;5.896;2022-12-24T10:28:51;29.73;;;7.85;;
56239;SDS011;42154;51.992;5.896;2022-12-24T10:31:25;33.03;;;8.10;;
56239;SDS011;42154;51.992;5.896;2022-12-24T10:34:06;26.05;;;6.53;;
56239;SDS011;42154;51.992;5.896;2022-12-24T10:39:09;32.63;;;7.90;;
56239;SDS011;42154;51.992;5.896;2022-12-24T10:41:42;28.63;;;6.45;;
56239;SDS011;42154;51.992;5.896;2022-12-24T10:44:12;30.38;;;7.25;;
56239;SDS011;42154;51.992;5.896;2022-12-24T10:46:41;30.88;;;7.00;;
56239;SDS011;42154;51.992;5.896;2022-12-24T10:49:14;32.00;;;7.57;;
56239;SDS011;42154;51.992;5.896;2022-12-24T10:55:04;31.70;;;8.63;;
56239;SDS011;42154;51.992;5.896;2022-12-24T10:57:35;30.10;;;7.00;;
56239;SDS011;42154;51.992;5.896;2022-12-24T11:00:02;28.23;;;6.40;;
56239;SDS011;42154;51.992;5.896;2022-12-24T11:05:06;30.85;;;7.13;;
56239;SDS011;42154;51.992;5.896;2022-12-24T11:08:05;24.20;;;6.63;;
56239;SDS011;42154;51.992;5.896;2022-12-24T11:10:39;26.35;;;6.10;;
56239;SDS011;42154;51.992;5.896;2022-12-24T11:18:35;24.38;;;6.72;;
56239;SDS011;42154;51.992;5.896;2022-12-24T11:21:08;29.30;;;6.20;;
56239;SDS011;42154;51.992;5.896;2022-12-24T11:23:34;29.77;;;6.40;;
56239;SDS011;42154;51.992;5.896;2022-12-24T11:25:59;30.08;;;8.30;;
56239;SDS011;42154;51.992;5.896;2022-12-24T11:28:29;24.23;;;5.70;;
56239;SDS011;42154;51.992;5.896;2022-12-24T11:31:05;24.85;;;5.43;;
56239;SDS011;42154;51.992;5.896;2022-12-24T11:33:49;30.60;;;6.45;;
56239;SDS011;42154;51.992;5.896;2022-12-24T11:36:20;23.88;;;5.20;;
56239;SDS011;42154;51.992;5.896;2022-12-24T11:38:51;24.08;;;5.40;;
56239;SDS011;42154;51.992;5.896;2022-12-24T11:41:20;26.98;;;5.38;;
56239;SDS011;42154;51.992;5.896;2022-12-24T11:43:46;24.77;;;5.38;;
56239;SDS011;42154;51.992;5.896;2022-12-24T11:46:16;27.27;;;5.57;;
56239;SDS011;42154;51.992;5.896;2022-12-24T11:48:44;24.48;;;5.05;;
56239;SDS011;42154;51.992;5.896;2022-12-24T11:54:21;24.98;;;5.47;;
56239;SDS011;42154;51.992;5.896;2022-12-24T11:56:52;26.65;;;5.63;;
56239;SDS011;42154;51.992;5.896;2022-12-24T11:59:23;23.25;;;4.10;;
56239;SDS011;42154;51.992;5.896;2022-12-24T12:04:42;19.08;;;4.43;;
56239;SDS011;42154;51.992;5.896;2022-12-24T12:07:24;24.35;;;6.65;;
56239;SDS011;42154;51.992;5.896;2022-12-24T12:10:05;19.90;;;4.35;;
56239;SDS011;42154;51.992;5.896;2022-12-24T12:12:59;27.38;;;5.78;;
56239;SDS011;42154;51.992;5.896;2022-12-24T12:15:29;23.83;;;6.38;;
56239;SDS011;42154;51.992;5.896;2022-12-24T12:18:56;26.65;;;6.40;;
56239;SDS011;42154;51.992;5.896;2022-12-24T12:21:02;24.48;;;5.65;;
56239;SDS011;42154;51.992;5.896;2022-12-24T12:24:00;25.02;;;5.70;;
56239;SDS011;42154;51.992;5.896;2022-12-24T12:26:30;25.67;;;5.95;;
56239;SDS011;42154;51.992;5.896;2022-12-24T12:31:43;29.05;;;5.55;;
56239;SDS011;42154;51.992;5.896;2022-12-24T12:34:16;25.42;;;5.47;;
56239;SDS011;42154;51.992;5.896;2022-12-24T12:36:45;26.92;;;5.90;;
56239;SDS011;42154;51.992;5.896;2022-12-24T12:39:11;21.73;;;4.78;;
56239;SDS011;42154;51.992;5.896;2022-12-24T12:42:00;22.08;;;5.57;;
56239;SDS011;42154;51.992;5.896;2022-12-24T12:44:42;20.15;;;4.10;;
56239;SDS011;42154;51.992;5.896;2022-12-24T12:50:14;18.70;;;4.65;;
56239;SDS011;42154;51.992;5.896;2022-12-24T12:58:27;21.35;;;5.25;;
56239;SDS011;42154;51.992;5.896;2022-12-24T13:01:17;26.75;;;5.95;;
56239;SDS011;42154;51.992;5.896;2022-12-24T13:07:24;24.63;;;6.45;;
56239;SDS011;42154;51.992;5.896;2022-12-24T13:09:55;19.63;;;5.05;;
56239;SDS011;42154;51.992;5.896;2022-12-24T13:20:51;23.35;;;5.45;;
56239;SDS011;42154;51.992;5.896;2022-12-24T13:23:21;18.13;;;5.20;;
56239;SDS011;42154;51.992;5.896;2022-12-24T13:25:49;16.90;;;4.70;;
56239;SDS011;42154;51.992;5.896;2022-12-24T13:40:55;22.60;;;5.03;;
56239;SDS011;42154;51.992;5.896;2022-12-24T13:44:08;15.90;;;3.88;;
56239;SDS011;42154;51.992;5.896;2022-12-24T13:49:46;16.80;;;4.05;;
56239;SDS011;42154;51.992;5.896;2022-12-24T13:54:38;17.73;;;3.90;;
56239;SDS011;42154;51.992;5.896;2022-12-24T13:57:22;21.15;;;4.15;;
56239;SDS011;42154;51.992;5.896;2022-12-24T13:59:56;18.48;;;4.57;;
56239;SDS011;42154;51.992;5.896;2022-12-24T14:02:24;19.02;;;4.35;;
56239;SDS011;42154;51.992;5.896;2022-12-24T14:04:52;23.00;;;3.95;;
56239;SDS011;42154;51.992;5.896;2022-12-24T14:09:49;18.48;;;3.55;;
56239;SDS011;42154;51.992;5.896;2022-12-24T14:12:30;21.88;;;4.05;;
56239;SDS011;42154;51.992;5.896;2022-12-24T14:18:22;20.38;;;3.92;;
56239;SDS011;42154;51.992;5.896;2022-12-24T14:20:49;14.23;;;3.25;;
56239;SDS011;42154;51.992;5.896;2022-12-24T14:23:44;21.00;;;3.97;;
56239;SDS011;42154;51.992;5.896;2022-12-24T14:26:19;14.85;;;3.50;;
56239;SDS011;42154;51.992;5.896;2022-12-24T14:31:52;21.52;;;4.75;;
56239;SDS011;42154;51.992;5.896;2022-12-24T14:34:19;17.33;;;4.15;;
56239;SDS011;42154;51.992;5.896;2022-12-24T14:36:45;22.48;;;5.10;;
56239;SDS011;42154;51.992;5.896;2022-12-24T14:39:24;12.18;;;3.65;;
56239;SDS011;42154;51.992;5.896;2022-12-24T14:41:58;22.40;;;6.03;;
56239;SDS011;42154;51.992;5.896;2022-12-24T14:55:57;23.42;;;6.13;;
56239;SDS011;42154;51.992;5.896;2022-12-24T14:58:24;19.20;;;6.25;;
56239;SDS011;42154;51.992;5.896;2022-12-24T15:00:51;15.90;;;5.00;;
56239;SDS011;42154;51.992;5.896;2022-12-24T15:03:21;20.50;;;5.93;;
56239;SDS011;42154;51.992;5.896;2022-12-24T15:05:52;22.13;;;7.00;;
56239;SDS011;42154;51.992;5.896;2022-12-24T15:08:27;27.98;;;7.40;;
56239;SDS011;42154;51.992;5.896;2022-12-24T15:11:02;22.53;;;7.47;;
56239;SDS011;42154;51.992;5.896;2022-12-24T15:13:39;20.55;;;6.85;;
56239;SDS011;42154;51.992;5.896;2022-12-24T15:16:09;22.10;;;6.32;;
56239;SDS011;42154;51.992;5.896;2022-12-24T15:18:47;23.15;;;6.78;;
56239;SDS011;42154;51.992;5.896;2022-12-24T15:21:19;20.58;;;5.97;;
56239;SDS011;42154;51.992;5.896;2022-12-24T15:23:51;32.03;;;9.73;;
56239;SDS011;42154;51.992;5.896;2022-12-24T15:26:21;20.33;;;7.55;;
56239;SDS011;42154;51.992;5.896;2022-12-24T15:28:47;30.40;;;8.00;;
56239;SDS011;42154;51.992;5.896;2022-12-24T15:31:14;29.05;;;7.50;;
56239;SDS011;42154;51.992;5.896;2022-12-24T15:36:14;25.20;;;8.07;;
56239;SDS011;42154;51.992;5.896;2022-12-24T15:38:49;22.02;;;6.35;;
56239;SDS011;42154;51.992;5.896;2022-12-24T15:41:21;19.05;;;6.32;;
56239;SDS011;42154;51.992;5.896;2022-12-24T15:44:00;17.23;;;5.10;;
56239;SDS011;42154;51.992;5.896;2022-12-24T15:46:28;29.60;;;7.07;;
56239;SDS011;42154;51.992;5.896;2022-12-24T15:48:55;29.98;;;8.43;;
56239;SDS011;42154;51.992;5.896;2022-12-24T15:51:28;22.65;;;7.40;;
56239;SDS011;42154;51.992;5.896;2022-12-24T15:54:02;27.05;;;7.35;;
56239;SDS011;42154;51.992;5.896;2022-12-24T15:56:31;19.50;;;7.32;;
56239;SDS011;42154;51.992;5.896;2022-12-24T16:01:43;21.77;;;6.45;;
56239;SDS011;42154;51.992;5.896;2022-12-24T16:04:12;27.83;;;7.30;;
56239;SDS011;42154;51.992;5.896;2022-12-24T16:06:55;20.02;;;6.97;;
56239;SDS011;42154;51.992;5.896;2022-12-24T16:11:59;22.70;;;7.57;;
56239;SDS011;42154;51.992;5.896;2022-12-24T16:14:28;28.67;;;7.80;;
56239;SDS011;42154;51.992;5.896;2022-12-24T16:16:55;24.27;;;7.28;;
56239;SDS011;42154;51.992;5.896;2022-12-24T16:19:23;25.83;;;7.47;;
56239;SDS011;42154;51.992;5.896;2022-12-24T16:21:55;24.75;;;8.70;;
56239;SDS011;42154;51.992;5.896;2022-12-24T16:26:50;28.88;;;10.70;;
56239;SDS011;42154;51.992;5.896;2022-12-24T16:29:16;29.58;;;9.93;;
56239;SDS011;42154;51.992;5.896;2022-12-24T16:34:23;28.63;;;9.50;;
56239;SDS011;42154;51.992;5.896;2022-12-24T16:36:51;22.92;;;8.27;;
56239;SDS011;42154;51.992;5.896;2022-12-24T16:39:20;27.75;;;9.45;;
56239;SDS011;42154;51.992;5.896;2022-12-24T16:41:52;31.35;;;9.23;;
56239;SDS011;42154;51.992;5.896;2022-12-24T16:44:37;25.52;;;8.82;;
56239;SDS011;42154;51.992;5.896;2022-12-24T16:47:25;21.48;;;9.13;;
56239;SDS011;42154;51.992;5.896;2022-12-24T16:49:51;29.45;;;9.75;;
56239;SDS011;42154;51.992;5.896;2022-12-24T16:52:21;31.63;;;10.15;;
56239;SDS011;42154;51.992;5.896;2022-12-24T16:54:50;25.50;;;11.63;;
56239;SDS011;42154;51.992;5.896;2022-12-24T16:57:17;28.02;;;11.80;;
56239;SDS011;42154;51.992;5.896;2022-12-24T16:59:43;33.15;;;14.27;;
56239;SDS011;42154;51.992;5.896;2022-12-24T17:02:10;41.72;;;21.80;;
56239;SDS011;42154;51.992;5.896;2022-12-24T17:04:38;39.80;;;20.30;;